Time;durP1;ratioP1;P1;durP2;ratioP2;P2;SDS_P1;SDS_P2;PMS_P1;PMS_P2;Temp;Humidity;BMP_temperature;BMP_pressure;BME280_temperature;BME280_humidity;BME280_pressure;Samples;Min_cycle;Max_cycle;Signal;HPM_P1;HPM_P2
2021/04/15 00:01:38;;;;;;;12.00;10.80;;;2.00;99.90;;;;;;5012438;28;20173;-62
2021/04/15 00:04:08;;;;;;;12.87;11.07;;;2.00;99.90;;;;;;5012546;28;20177;-62
2021/04/15 00:06:35;;;;;;;14.90;12.37;;;2.00;99.90;;;;;;5012765;28;20408;-60
2021/04/15 00:09:09;;;;;;;11.77;10.57;;;1.90;99.90;;;;;;5012005;28;20432;-62
2021/04/15 00:11:35;;;;;;;12.63;11.20;;;1.80;99.90;;;;;;5012441;28;20407;-62
2021/04/15 00:14:02;;;;;;;13.90;11.40;;;1.70;99.90;;;;;;5011966;28;20462;-62
2021/04/15 00:16:29;;;;;;;11.57;10.50;;;1.70;99.90;;;;;;5013892;28;20433;-62
2021/04/15 00:18:56;;;;;;;15.23;10.50;;;1.70;99.90;;;;;;5015979;28;20463;-62
2021/04/15 00:21:22;;;;;;;11.47;10.23;;;1.70;99.90;;;;;;5016633;28;20506;-62
2021/04/15 00:23:47;;;;;;;12.77;11.43;;;1.70;99.90;;;;;;5016452;28;20495;-62
2021/04/15 00:26:16;;;;;;;12.17;10.97;;;1.60;99.90;;;;;;5016097;28;20773;-62
2021/04/15 00:28:42;;;;;;;12.13;10.93;;;1.50;99.90;;;;;;5015740;28;20224;-60
2021/04/15 00:31:08;;;;;;;10.87;9.83;;;1.40;99.90;;;;;;5016134;28;20412;-62
2021/04/15 00:33:34;;;;;;;8.53;7.73;;;1.40;99.90;;;;;;5016314;28;20892;-62
2021/04/15 00:36:00;;;;;;;11.73;10.73;;;1.30;99.90;;;;;;5016132;28;20439;-62
2021/04/15 00:38:27;;;;;;;11.73;10.53;;;1.30;99.90;;;;;;5015904;28;20494;-62
2021/04/15 00:40:54;;;;;;;10.77;9.80;;;1.30;99.90;;;;;;5015929;28;21002;-62
2021/04/15 00:43:22;;;;;;;9.90;8.90;;;1.30;99.90;;;;;;5016233;28;20803;-62
2021/04/15 00:45:48;;;;;;;12.07;10.00;;;1.30;99.90;;;;;;5016100;28;20411;-62
2021/04/15 00:48:35;;;;;;;13.63;10.93;;;1.20;99.90;;;;;;5015771;28;20412;-61
2021/04/15 00:51:04;;;;;;;10.63;9.47;;;1.20;99.90;;;;;;5016395;28;20402;-61
2021/04/15 00:53:44;;;;;;;12.60;9.97;;;1.20;99.90;;;;;;5015865;28;20490;-61
2021/04/15 00:56:12;;;;;;;11.30;10.30;;;1.20;99.90;;;;;;5015948;28;20631;-62
2021/04/15 00:58:38;;;;;;;11.63;10.37;;;1.10;99.90;;;;;;5015603;28;20425;-62
2021/04/15 01:01:04;;;;;;;10.80;9.70;;;1.00;99.90;;;;;;5015996;28;20410;-62
2021/04/15 01:03:31;;;;;;;12.13;11.00;;;1.10;99.90;;;;;;5015831;28;20497;-62
2021/04/15 01:05:57;;;;;;;12.30;11.10;;;1.10;99.90;;;;;;5015620;28;20550;-62
2021/04/15 01:08:23;;;;;;;10.30;9.40;;;1.10;99.90;;;;;;5015256;28;20194;-62
2021/04/15 01:11:04;;;;;;;10.07;9.03;;;1.10;99.90;;;;;;5015992;28;20677;-62
2021/04/15 01:14:07;;;;;;;12.52;11.32;;;1.10;99.90;;;;;;5015690;28;20167;-62
2021/04/15 01:16:41;;;;;;;10.18;9.18;;;1.10;99.90;;;;;;5015918;28;20175;-62
2021/04/15 01:19:43;;;;;;;11.47;9.07;;;1.10;99.90;;;;;;5015208;28;20373;-62
2021/04/15 01:22:18;;;;;;;12.07;10.87;;;1.10;99.90;;;;;;5015626;28;20406;-62
2021/04/15 01:24:48;;;;;;;11.07;9.93;;;1.20;99.90;;;;;;5015621;28;20405;-61
2021/04/15 01:27:22;;;;;;;10.65;9.68;;;1.20;99.90;;;;;;5014482;28;20552;-61
2021/04/15 01:30:09;;;;;;;10.13;9.30;;;1.20;99.90;;;;;;5015026;28;20221;-62
2021/04/15 01:32:34;;;;;;;9.30;8.50;;;1.20;99.90;;;;;;5015969;28;20604;-62
2021/04/15 01:35:22;;;;;;;11.90;9.77;;;1.20;99.90;;;;;;5015505;28;20178;-62
2021/04/15 01:37:51;;;;;;;9.98;9.07;;;1.20;99.90;;;;;;5015022;28;20168;-62
2021/04/15 01:40:27;;;;;;;10.30;9.35;;;1.20;99.90;;;;;;5014682;28;20204;-62
2021/04/15 01:43:08;;;;;;;11.60;10.43;;;1.20;99.90;;;;;;5015206;28;20173;-61
2021/04/15 01:45:33;;;;;;;11.68;10.25;;;1.20;99.90;;;;;;5014953;28;20408;-62
2021/04/15 01:48:11;;;;;;;10.47;9.40;;;1.20;99.90;;;;;;5014435;28;20167;-61
2021/04/15 01:51:06;;;;;;;9.93;8.93;;;1.20;99.90;;;;;;5014772;28;20199;-62
2021/04/15 01:53:39;;;;;;;10.67;9.50;;;1.20;99.90;;;;;;5014462;28;20438;-61
2021/04/15 01:56:39;;;;;;;10.13;9.27;;;1.20;99.90;;;;;;5014828;28;20432;-61
2021/04/15 01:59:10;;;;;;;11.07;9.27;;;1.10;99.90;;;;;;5002481;28;20220;-61
2021/04/15 02:01:46;;;;;;;10.37;9.37;;;1.10;99.90;;;;;;5015004;28;20173;-62
2021/04/15 02:04:23;;;;;;;11.30;10.18;;;1.10;99.90;;;;;;5014647;28;20435;-61
2021/04/15 02:06:54;;;;;;;11.50;10.45;;;1.00;99.90;;;;;;5014499;28;20172;-61
2021/04/15 02:09:22;;;;;;;10.17;9.17;;;1.00;99.90;;;;;;5014163;28;20230;-62
2021/04/15 02:11:57;;;;;;;10.53;9.47;;;0.90;99.90;;;;;;5014733;28;20414;-61
2021/04/15 02:14:27;;;;;;;11.40;9.83;;;0.90;99.90;;;;;;5014480;28;20450;-61
2021/04/15 02:16:56;;;;;;;12.85;9.45;;;1.00;99.90;;;;;;5014892;28;20958;-61
2021/04/15 02:19:43;;;;;;;12.37;11.07;;;1.00;99.90;;;;;;5013660;28;20214;-60
2021/04/15 02:22:11;;;;;;;10.48;9.57;;;0.90;99.90;;;;;;5014443;28;20473;-61
2021/04/15 02:25:09;;;;;;;9.50;8.50;;;0.90;99.90;;;;;;5014145;28;20813;-61
2021/04/15 02:27:43;;;;;;;9.40;8.37;;;0.90;99.90;;;;;;5012853;28;20495;-61
2021/04/15 02:30:12;;;;;;;9.65;8.82;;;0.80;99.90;;;;;;5013850;28;20429;-61
2021/04/15 02:32:42;;;;;;;12.38;11.18;;;0.70;99.90;;;;;;5014258;28;20171;-60
2021/04/15 02:35:22;;;;;;;10.77;9.67;;;0.70;99.90;;;;;;5014169;28;20600;-61
2021/04/15 02:37:53;;;;;;;8.90;8.10;;;0.60;99.90;;;;;;5014217;28;20914;-62
2021/04/15 02:40:50;;;;;;;10.07;9.27;;;0.70;99.90;;;;;;5013428;28;20567;-62
2021/04/15 02:43:30;;;;;;;9.90;8.90;;;0.70;99.90;;;;;;5013879;28;20528;-61
2021/04/15 02:45:57;;;;;;;10.10;9.20;;;0.60;99.90;;;;;;5012694;28;20178;-61
2021/04/15 02:48:34;;;;;;;10.70;9.60;;;0.60;99.90;;;;;;5015317;28;20167;-61
2021/04/15 02:51:03;;;;;;;9.57;8.35;;;0.60;99.90;;;;;;5016383;28;20178;-61
2021/04/15 02:53:34;;;;;;;11.25;9.80;;;0.50;99.90;;;;;;5015867;28;20280;-61
2021/04/15 02:56:29;;;;;;;9.10;8.30;;;0.50;99.90;;;;;;5015807;28;20167;-61
2021/04/15 02:59:20;;;;;;;8.48;7.65;;;0.50;99.90;;;;;;5015122;28;20269;-61
2021/04/15 03:01:50;;;;;;;10.20;8.73;;;0.40;99.90;;;;;;5013062;28;20191;-61
2021/04/15 03:04:20;;;;;;;9.95;8.95;;;0.30;99.90;;;;;;5015751;28;20220;-61
2021/04/15 03:06:47;;;;;;;9.63;7.28;;;0.30;99.90;;;;;;5015910;28;20672;-61
2021/04/15 03:09:14;;;;;;;8.00;7.20;;;0.30;99.90;;;;;;5015148;28;20204;-62
2021/04/15 03:11:53;;;;;;;8.95;8.20;;;0.40;99.90;;;;;;5015544;28;20170;-61
2021/04/15 03:14:47;;;;;;;13.20;9.57;;;0.30;99.90;;;;;;5015407;28;20171;-61
2021/04/15 03:17:14;;;;;;;10.18;9.27;;;0.30;99.90;;;;;;5004595;28;20195;-61
2021/04/15 03:19:45;;;;;;;9.70;8.77;;;0.30;99.90;;;;;;5012928;28;20189;-61
2021/04/15 03:22:31;;;;;;;12.73;9.02;;;0.20;99.90;;;;;;5015738;28;20253;-61
2021/04/15 03:24:59;;;;;;;10.55;9.15;;;0.10;99.90;;;;;;5015380;28;20526;-62
2021/04/15 03:28:00;;;;;;;9.48;8.57;;;0.00;99.90;;;;;;5015420;28;20546;-62
2021/04/15 03:30:50;;;;;;;12.02;10.10;;;0.00;99.90;;;;;;4993051;28;20199;-61
2021/04/15 03:33:37;;;;;;;9.32;8.27;;;0.00;99.90;;;;;;5014343;28;20181;-61
2021/04/15 03:36:19;;;;;;;9.07;8.18;;;-0.10;99.90;;;;;;5015120;28;20170;-61
2021/04/15 03:39:20;;;;;;;8.93;8.10;;;-0.10;99.90;;;;;;5014275;28;20224;-61
2021/04/15 03:41:48;;;;;;;8.80;7.90;;;-0.20;99.90;;;;;;5014477;28;20190;-62
2021/04/15 03:44:26;;;;;;;9.82;8.93;;;-0.20;99.90;;;;;;5014241;28;20228;-61
2021/04/15 03:47:11;;;;;;;7.80;7.15;;;-0.30;99.90;;;;;;5014612;28;20162;-61
2021/04/15 03:49:41;;;;;;;11.38;8.48;;;-0.20;99.90;;;;;;5014226;28;20202;-61
2021/04/15 03:52:19;;;;;;;9.15;8.32;;;-0.20;99.90;;;;;;5013621;28;20193;-62
2021/04/15 03:54:49;;;;;;;9.63;8.73;;;-0.30;99.90;;;;;;5014165;28;20171;-61
2021/04/15 03:57:21;;;;;;;10.60;9.63;;;-0.30;99.90;;;;;;5014358;28;20233;-60
2021/04/15 04:00:04;;;;;;;9.02;8.23;;;-0.30;99.90;;;;;;5013712;28;20706;-60
2021/04/15 04:02:34;;;;;;;10.20;9.18;;;-0.40;99.90;;;;;;5013821;28;20266;-61
2021/04/15 04:05:22;;;;;;;8.93;8.13;;;-0.40;99.90;;;;;;5013978;28;20172;-61
2021/04/15 04:07:55;;;;;;;7.85;7.25;;;-0.30;99.90;;;;;;5014333;28;20264;-61
2021/04/15 04:10:23;;;;;;;10.18;7.53;;;-0.30;99.90;;;;;;5013699;28;20565;-61
2021/04/15 04:12:53;;;;;;;10.02;7.90;;;-0.20;99.90;;;;;;5013921;28;20189;-62
2021/04/15 04:15:25;;;;;;;9.38;7.40;;;-0.20;99.90;;;;;;5013683;28;20173;-61
2021/04/15 04:18:03;;;;;;;11.32;7.28;;;-0.10;99.90;;;;;;5013668;28;20185;-62
2021/04/15 04:20:35;;;;;;;8.07;7.22;;;-0.10;99.90;;;;;;5013468;28;20225;-62
2021/04/15 04:23:09;;;;;;;8.50;7.47;;;-0.10;99.90;;;;;;5013992;28;20173;-61
2021/04/15 04:25:41;;;;;;;9.52;8.63;;;0.00;99.90;;;;;;5013968;28;20168;-61
2021/04/15 04:28:36;;;;;;;11.55;8.98;;;-0.10;99.90;;;;;;5013582;28;20201;-61
2021/04/15 04:31:16;;;;;;;8.55;7.65;;;-0.10;99.90;;;;;;5013996;28;20174;-61
2021/04/15 04:33:47;;;;;;;10.20;7.80;;;-0.20;99.90;;;;;;5014092;28;20519;-61
2021/04/15 04:36:14;;;;;;;8.50;7.70;;;-0.20;99.90;;;;;;5014213;28;20180;-61
2021/04/15 04:38:40;;;;;;;10.10;7.75;;;-0.20;99.90;;;;;;5013347;28;20176;-62
2021/04/15 04:41:12;;;;;;;10.00;9.00;;;-0.10;99.90;;;;;;5013480;28;20185;-62
2021/04/15 04:43:51;;;;;;;10.27;7.88;;;-0.10;99.90;;;;;;5014014;28;20841;-61
2021/04/15 04:46:31;;;;;;;8.82;7.95;;;0.00;99.90;;;;;;5013851;28;20272;-60
2021/04/15 04:49:01;;;;;;;10.07;9.00;;;-0.10;99.90;;;;;;5013358;28;20181;-61
2021/04/15 04:51:50;;;;;;;8.68;7.88;;;-0.20;99.90;;;;;;5013816;28;20759;-62
2021/04/15 04:54:18;;;;;;;9.77;8.77;;;-0.10;99.90;;;;;;5013528;28;20249;-61
2021/04/15 04:56:48;;;;;;;8.13;7.32;;;-0.10;99.90;;;;;;5013663;28;20170;-61
2021/04/15 04:59:20;;;;;;;11.50;9.90;;;-0.10;99.90;;;;;;5013320;28;20276;-61
2021/04/15 05:01:46;;;;;;;10.32;9.30;;;-0.10;99.90;;;;;;5014349;28;20625;-62
2021/04/15 05:04:12;;;;;;;9.75;8.68;;;-0.10;99.90;;;;;;5017048;28;20170;-62
2021/04/15 05:06:42;;;;;;;9.33;8.30;;;-0.20;99.90;;;;;;5017786;28;20593;-61
2021/04/15 05:09:28;;;;;;;9.93;8.68;;;-0.20;99.90;;;;;;5016901;28;20185;-62
2021/04/15 05:11:54;;;;;;;10.27;8.68;;;-0.20;99.90;;;;;;5016976;28;20177;-61
2021/04/15 05:14:23;;;;;;;9.43;8.52;;;-0.20;99.90;;;;;;5017010;28;20204;-61
2021/04/15 05:16:57;;;;;;;9.13;8.13;;;-0.10;99.90;;;;;;5016964;28;20185;-62
2021/04/15 05:19:23;;;;;;;8.55;7.68;;;-0.10;99.90;;;;;;5016789;28;20689;-61
2021/04/15 05:21:50;;;;;;;11.80;8.50;;;-0.10;99.90;;;;;;5017463;28;20245;-62
2021/04/15 05:24:38;;;;;;;15.55;11.00;;;-0.10;99.90;;;;;;5016863;28;20177;-61
2021/04/15 05:27:05;;;;;;;10.88;8.50;;;-0.20;99.90;;;;;;5017101;28;20184;-61
2021/04/15 05:29:34;;;;;;;9.90;8.82;;;-0.20;99.90;;;;;;5016035;28;20545;-61
2021/04/15 05:32:00;;;;;;;10.05;8.20;;;-0.20;99.90;;;;;;5016696;28;20258;-61
2021/04/15 05:34:56;;;;;;;11.95;8.18;;;-0.20;99.90;;;;;;5016582;28;20755;-61
2021/04/15 05:37:24;;;;;;;12.60;9.65;;;-0.10;99.90;;;;;;5012484;28;20191;-61
2021/04/15 05:39:52;;;;;;;13.43;10.55;;;-0.10;99.90;;;;;;5016678;28;20204;-62
2021/04/15 05:42:17;;;;;;;15.25;10.32;;;0.00;99.90;;;;;;5017051;28;20192;-61
2021/04/15 05:44:45;;;;;;;12.50;9.63;;;0.00;99.90;;;;;;5016709;28;20232;-61
2021/04/15 05:47:34;;;;;;;14.88;11.38;;;0.00;99.90;;;;;;5017115;28;20191;-61
2021/04/15 05:50:46;;;;;;;24.10;18.80;;;0.00;99.90;;;;;;5016734;28;20247;-61
2021/04/15 05:53:23;;;;;;;14.45;11.70;;;0.10;99.90;;;;;;5012851;28;20192;-61
2021/04/15 05:55:55;;;;;;;18.48;11.65;;;0.10;99.90;;;;;;5016731;28;20210;-61
2021/04/15 05:58:32;;;;;;;14.15;11.60;;;0.20;99.90;;;;;;5016441;28;20169;-61
2021/04/15 06:01:12;;;;;;;13.93;11.18;;;0.30;99.90;;;;;;5016749;28;20646;-61
2021/04/15 06:04:01;;;;;;;13.80;11.38;;;0.40;99.90;;;;;;5017073;28;20538;-62
2021/04/15 06:06:34;;;;;;;16.38;10.75;;;0.40;99.90;;;;;;5018068;28;20234;-63
2021/04/15 06:09:01;;;;;;;14.05;10.98;;;0.50;99.90;;;;;;5018466;28;20190;-62
2021/04/15 06:11:44;;;;;;;13.73;11.57;;;0.60;99.90;;;;;;5020324;28;20204;-61
2021/04/15 06:14:14;;;;;;;15.35;11.40;;;0.60;99.90;;;;;;5019331;28;20165;-62
2021/04/15 06:16:46;;;;;;;14.30;12.85;;;0.70;99.90;;;;;;5020084;28;20255;-62
2021/04/15 06:19:21;;;;;;;15.55;12.38;;;0.70;99.90;;;;;;5020136;28;20225;-62
2021/04/15 06:21:49;;;;;;;14.77;12.30;;;0.70;99.90;;;;;;5020037;28;20169;-62
2021/04/15 06:24:23;;;;;;;22.85;14.93;;;0.80;99.90;;;;;;5020030;28;20171;-62
2021/04/15 06:26:52;;;;;;;20.45;16.23;;;0.80;99.90;;;;;;5020319;28;20172;-63
2021/04/15 06:29:36;;;;;;;16.67;13.52;;;0.80;99.90;;;;;;5020164;28;20580;-62
2021/04/15 06:32:03;;;;;;;15.23;11.77;;;0.90;99.90;;;;;;5020652;28;20174;-62
2021/04/15 06:34:30;;;;;;;15.73;13.40;;;1.00;99.90;;;;;;5020791;28;20177;-62
2021/04/15 06:37:12;;;;;;;21.08;15.32;;;1.10;99.90;;;;;;5021563;28;20178;-62
2021/04/15 06:40:04;;;;;;;19.70;14.75;;;1.10;99.90;;;;;;5019909;28;20202;-62
2021/04/15 06:43:00;;;;;;;14.55;11.95;;;1.20;99.90;;;;;;5001984;28;20221;-62
2021/04/15 06:45:50;;;;;;;19.33;14.60;;;1.30;99.90;;;;;;5019058;28;20598;-61
2021/04/15 06:48:27;;;;;;;18.70;13.38;;;1.40;99.90;;;;;;5014780;28;20203;-63
2021/04/15 06:51:18;;;;;;;22.17;16.42;;;1.50;99.90;;;;;;5014527;28;20187;-62
2021/04/15 06:54:08;;;;;;;18.30;15.00;;;1.50;99.90;;;;;;5013531;28;20175;-62
2021/04/15 06:56:52;;;;;;;23.52;16.80;;;1.60;99.90;;;;;;5013494;28;20190;-63
2021/04/15 06:59:39;;;;;;;19.70;15.82;;;1.70;99.90;;;;;;5021235;28;20252;-64
2021/04/15 07:02:15;;;;;;;14.70;12.30;;;1.90;99.90;;;;;;5025518;28;20175;-63
2021/04/15 07:05:03;;;;;;;8.97;8.03;;;2.10;99.90;;;;;;5022057;28;20175;-63
2021/04/15 07:07:36;;;;;;;14.02;11.32;;;2.20;99.90;;;;;;5015837;28;20402;-62
2021/04/15 07:10:01;;;;;;;10.23;9.30;;;2.50;99.90;;;;;;5017199;28;20200;-63
2021/04/15 07:12:42;;;;;;;14.00;9.97;;;2.60;99.90;;;;;;5017101;28;20400;-61
2021/04/15 07:15:29;;;;;;;13.50;10.87;;;2.70;99.90;;;;;;5018363;28;20176;-63
2021/04/15 07:18:06;;;;;;;10.80;9.37;;;2.90;99.90;;;;;;5016399;28;20403;-64
2021/04/15 07:20:44;;;;;;;16.63;10.50;;;3.00;99.90;;;;;;5021079;28;20531;-62
2021/04/15 07:23:34;;;;;;;15.53;8.37;;;3.20;99.90;;;;;;5019123;28;20415;-62
2021/04/15 07:26:05;;;;;;;9.07;8.20;;;3.40;99.90;;;;;;5018166;28;20413;-62
2021/04/15 07:29:12;;;;;;;10.93;8.80;;;3.50;99.90;;;;;;5014188;28;20401;-63
2021/04/15 07:31:44;;;;;;;9.60;7.30;;;3.60;99.90;;;;;;5014949;28;20410;-63
2021/04/15 07:34:31;;;;;;;10.80;7.40;;;3.80;99.90;;;;;;5016214;28;20427;-62
2021/04/15 07:37:24;;;;;;;9.60;7.60;;;3.90;99.90;;;;;;5014749;28;20404;-62
2021/04/15 07:40:23;;;;;;;8.77;7.23;;;4.10;99.90;;;;;;5016338;28;20467;-63
2021/04/15 07:43:16;;;;;;;8.33;6.87;;;4.20;99.10;;;;;;5018396;28;20424;-62
2021/04/15 07:46:10;;;;;;;7.07;6.37;;;4.30;99.50;;;;;;5014525;28;20775;-63
2021/04/15 07:48:53;;;;;;;8.57;7.67;;;4.40;98.50;;;;;;5002005;28;20408;-64
2021/04/15 07:51:40;;;;;;;10.20;8.90;;;4.60;98.40;;;;;;5013763;28;20400;-63
2021/04/15 07:54:24;;;;;;;11.10;9.60;;;4.70;98.20;;;;;;5012610;28;20396;-62
2021/04/15 07:57:23;;;;;;;7.60;7.00;;;4.80;97.90;;;;;;5012426;28;20396;-63
2021/04/15 08:00:20;;;;;;;7.87;7.00;;;4.90;97.80;;;;;;5011897;28;20462;-61
2021/04/15 08:03:13;;;;;;;10.80;8.20;;;5.20;97.80;;;;;;5012228;28;20400;-62
2021/04/15 08:05:44;;;;;;;8.53;7.73;;;5.20;95.80;;;;;;5012658;28;20768;-63
2021/04/15 08:08:40;;;;;;;12.07;10.57;;;5.20;95.90;;;;;;5013238;28;20420;-63
2021/04/15 08:11:25;;;;;;;11.77;10.70;;;5.10;96.30;;;;;;5015313;28;20408;-63
2021/04/15 08:14:06;;;;;;;11.13;10.03;;;5.00;97.10;;;;;;5013065;28;20400;-63
2021/04/15 08:17:09;;;;;;;12.33;10.93;;;5.00;97.30;;;;;;5014805;28;20427;-63
2021/04/15 08:20:06;;;;;;;11.20;10.00;;;5.10;97.20;;;;;;5014022;28;20835;-63
2021/04/15 08:22:41;;;;;;;11.77;10.67;;;5.20;96.90;;;;;;5015309;28;20411;-63
2021/04/15 08:25:27;;;;;;;12.20;11.00;;;5.10;96.20;;;;;;5015242;28;20412;-63
2021/04/15 08:28:07;;;;;;;10.73;9.80;;;5.10;95.30;;;;;;5015157;28;20858;-64
2021/04/15 08:30:53;;;;;;;10.37;9.10;;;5.10;95.40;;;;;;5015620;28;20519;-63
2021/04/15 08:33:47;;;;;;;11.90;10.83;;;5.00;95.50;;;;;;5014863;28;20555;-63
2021/04/15 08:36:32;;;;;;;12.43;11.23;;;5.10;95.80;;;;;;5013105;28;20424;-63
2021/04/15 08:39:24;;;;;;;10.87;9.77;;;5.20;96.20;;;;;;5015745;28;20432;-63
2021/04/15 08:42:07;;;;;;;14.37;12.80;;;5.50;96.90;;;;;;5016505;28;20424;-62
2021/04/15 08:44:48;;;;;;;12.20;10.73;;;5.70;95.90;;;;;;5018666;28;20780;-62
2021/04/15 08:48:00;;;;;;;13.67;12.20;;;5.70;94.80;;;;;;5017139;28;20412;-59
2021/04/15 08:50:44;;;;;;;10.93;9.87;;;5.60;95.00;;;;;;5005027;28;20455;-60
2021/04/15 08:53:37;;;;;;;13.37;10.60;;;5.50;94.80;;;;;;5015579;28;20404;-61
2021/04/15 08:56:11;;;;;;;10.10;9.10;;;5.40;94.40;;;;;;5015557;28;20411;-59
2021/04/15 08:59:01;;;;;;;12.87;11.67;;;5.40;95.10;;;;;;5015040;28;20777;-62
2021/04/15 09:02:00;;;;;;;11.50;10.40;;;5.60;95.30;;;;;;5015363;28;20412;-62
2021/04/15 09:05:14;;;;;;;12.23;10.97;;;5.70;95.40;;;;;;5014941;28;20412;-59
2021/04/15 09:08:22;;;;;;;10.70;9.70;;;5.80;95.50;;;;;;4978586;28;20947;-62
2021/04/15 09:11:09;;;;;;;13.80;10.57;;;5.80;94.90;;;;;;5012407;28;20440;-62
2021/04/15 09:14:00;;;;;;;21.37;11.90;;;5.80;95.00;;;;;;5015360;28;20392;-59
2021/04/15 09:16:41;;;;;;;9.00;8.23;;;5.80;95.20;;;;;;5015045;28;20400;-61
2021/04/15 09:19:27;;;;;;;12.53;11.43;;;5.80;95.40;;;;;;5014693;28;20416;-60
2021/04/15 09:22:18;;;;;;;10.60;9.70;;;5.80;95.00;;;;;;5015125;28;20405;-63
2021/04/15 09:25:16;;;;;;;15.97;14.00;;;5.90;94.70;;;;;;5015116;28;20467;-62
2021/04/15 09:27:58;;;;;;;14.20;12.93;;;5.80;94.30;;;;;;5014997;28;20400;-63
2021/04/15 09:30:43;;;;;;;10.70;9.80;;;5.80;94.40;;;;;;5014662;28;20446;-61
2021/04/15 09:33:36;;;;;;;13.17;11.87;;;6.00;93.90;;;;;;5014778;28;21031;-61
2021/04/15 09:36:12;;;;;;;12.03;10.93;;;6.00;93.90;;;;;;5013532;28;20416;-59
2021/04/15 09:39:02;;;;;;;12.07;11.07;;;6.10;93.40;;;;;;5014300;28;20406;-61
2021/04/15 09:42:05;;;;;;;10.40;9.47;;;6.20;93.30;;;;;;5014781;28;20459;-59
2021/04/15 09:45:04;;;;;;;9.47;8.63;;;6.30;93.00;;;;;;5014668;28;20404;-62
2021/04/15 09:47:39;;;;;;;9.57;8.67;;;6.50;91.70;;;;;;5014646;28;20404;-59
2021/04/15 09:50:27;;;;;;;9.00;8.33;;;6.60;91.90;;;;;;5013262;28;20424;-58
2021/04/15 09:52:56;;;;;;;9.63;8.80;;;6.50;91.60;;;;;;5014601;28;20396;-62
2021/04/15 09:55:30;;;;;;;10.87;9.57;;;6.50;91.50;;;;;;5014282;28;20482;-61
2021/04/15 09:58:12;;;;;;;9.60;8.80;;;6.50;91.20;;;;;;5014398;28;20474;-60
2021/04/15 10:00:42;;;;;;;9.27;8.57;;;6.50;91.50;;;;;;5014208;28;20861;-59
2021/04/15 10:03:45;;;;;;;7.67;7.03;;;6.50;91.70;;;;;;5014322;28;20408;-60
2021/04/15 10:06:22;;;;;;;8.53;7.87;;;6.50;90.90;;;;;;5014133;28;20441;-58
2021/04/15 10:08:54;;;;;;;7.00;6.40;;;7.20;91.20;;;;;;5013907;28;20450;-60
2021/04/15 10:11:49;;;;;;;8.70;7.17;;;7.50;89.50;;;;;;5014090;28;20411;-62
2021/04/15 10:14:18;;;;;;;6.17;5.73;;;7.60;84.80;;;;;;5014098;28;20958;-60
2021/04/15 10:17:21;;;;;;;7.43;6.40;;;7.50;86.30;;;;;;5014034;28;20979;-62
2021/04/15 10:20:35;;;;;;;8.03;7.40;;;7.40;85.60;;;;;;5013510;28;20452;-60
2021/04/15 10:23:26;;;;;;;8.17;7.40;;;7.30;86.30;;;;;;4994506;28;20509;-61
2021/04/15 10:25:57;;;;;;;10.03;7.53;;;7.30;84.60;;;;;;5014077;28;20523;-59
2021/04/15 10:28:33;;;;;;;8.13;7.33;;;7.20;84.90;;;;;;5013460;28;20818;-61
2021/04/15 10:31:20;;;;;;;8.20;7.60;;;7.30;86.30;;;;;;5013614;28;20440;-63
2021/04/15 10:34:18;;;;;;;8.33;7.60;;;7.40;86.90;;;;;;5013704;28;20432;-61
2021/04/15 10:37:08;;;;;;;9.10;8.40;;;7.40;86.20;;;;;;5006274;28;20791;-63
2021/04/15 10:39:54;;;;;;;7.53;6.67;;;7.80;88.80;;;;;;5013096;28;20462;-62
2021/04/15 10:42:57;;;;;;;6.87;6.47;;;8.00;88.10;;;;;;5013613;28;20425;-63
2021/04/15 10:45:41;;;;;;;6.60;6.00;;;8.00;85.10;;;;;;5013570;28;20964;-64
2021/04/15 10:48:16;;;;;;;11.17;9.83;;;8.00;84.90;;;;;;5013229;28;20426;-64
2021/04/15 10:51:26;;;;;;;7.33;6.60;;;8.00;84.90;;;;;;5013284;28;20447;-60
2021/04/15 10:53:58;;;;;;;11.43;6.63;;;7.80;82.10;;;;;;4991318;28;20852;-63
2021/04/15 10:56:25;;;;;;;10.00;9.00;;;7.80;81.80;;;;;;4991550;28;20413;-63
2021/04/15 10:59:05;;;;;;;7.97;7.37;;;7.70;82.50;;;;;;5001933;28;20417;-62
2021/04/15 11:01:43;;;;;;;6.87;6.37;;;7.70;82.70;;;;;;5013193;28;20427;-62
2021/04/15 11:04:08;;;;;;;7.03;6.30;;;7.60;82.00;;;;;;5013120;28;20889;-64
2021/04/15 11:06:45;;;;;;;7.23;6.73;;;7.70;84.40;;;;;;5013076;28;20409;-65
2021/04/15 11:09:28;;;;;;;8.13;7.40;;;8.00;85.70;;;;;;5012788;28;20567;-64
2021/04/15 11:12:06;;;;;;;8.00;7.33;;;8.20;85.50;;;;;;5012988;28;20486;-62
2021/04/15 11:14:46;;;;;;;8.53;8.03;;;8.10;79.40;;;;;;5013085;28;20416;-65
2021/04/15 11:17:29;;;;;;;7.50;7.10;;;8.10;82.70;;;;;;5012924;28;20416;-65
2021/04/15 11:20:19;;;;;;;8.47;7.77;;;8.00;83.20;;;;;;5012509;28;20456;-62
2021/04/15 11:23:05;;;;;;;8.60;7.80;;;7.80;82.40;;;;;;5012842;28;20447;-64
2021/04/15 11:25:51;;;;;;;9.10;8.20;;;7.60;82.40;;;;;;5012787;28;20412;-65
2021/04/15 11:28:23;;;;;;;8.10;7.57;;;7.50;84.20;;;;;;5012484;28;20490;-62
2021/04/15 11:31:08;;;;;;;13.60;8.73;;;7.40;84.50;;;;;;5012638;28;20483;-63
2021/04/15 11:33:48;;;;;;;8.30;7.70;;;7.40;85.10;;;;;;5012493;28;20411;-64
2021/04/15 11:36:22;;;;;;;8.70;8.10;;;7.40;85.90;;;;;;5012678;28;20417;-61
2021/04/15 11:39:05;;;;;;;26.40;19.57;;;7.30;86.90;;;;;;5012158;28;20834;-62
2021/04/15 11:41:46;;;;;;;10.50;9.40;;;7.20;85.40;;;;;;5012483;28;20433;-64
2021/04/15 11:44:23;;;;;;;9.93;9.00;;;7.30;86.90;;;;;;5012477;28;20402;-62
2021/04/15 11:46:59;;;;;;;9.37;8.57;;;7.30;87.50;;;;;;5012487;28;20402;-64
2021/04/15 11:49:29;;;;;;;8.23;7.40;;;7.40;87.00;;;;;;5011873;28;20428;-64
2021/04/15 11:52:13;;;;;;;8.87;8.23;;;7.50;87.40;;;;;;5012406;28;20418;-64
2021/04/15 11:54:42;;;;;;;9.50;8.83;;;7.50;86.20;;;;;;5012346;28;20400;-62
2021/04/15 11:57:19;;;;;;;9.20;8.50;;;7.50;86.00;;;;;;5012358;28;20418;-62
2021/04/15 12:00:09;;;;;;;9.23;8.53;;;7.50;85.50;;;;;;5011767;28;20498;-64
2021/04/15 12:02:49;;;;;;;8.30;7.40;;;7.50;84.40;;;;;;5012105;28;20767;-64
2021/04/15 12:05:14;;;;;;;9.43;8.50;;;7.50;84.40;;;;;;5012113;28;21041;-61
2021/04/15 12:07:45;;;;;;;8.70;8.10;;;7.50;85.50;;;;;;5012253;28;20542;-65
2021/04/15 12:10:13;;;;;;;9.63;8.93;;;7.50;85.40;;;;;;5011771;28;20193;-64
2021/04/15 12:12:42;;;;;;;9.13;8.40;;;7.50;84.90;;;;;;5011682;28;20419;-65
2021/04/15 12:15:13;;;;;;;8.67;7.83;;;7.50;83.90;;;;;;5011914;28;20489;-62
2021/04/15 12:17:53;;;;;;;8.07;7.47;;;7.50;83.80;;;;;;5012083;28;20415;-62
2021/04/15 12:20:48;;;;;;;8.97;8.27;;;7.60;85.10;;;;;;5011767;28;20458;-64
2021/04/15 12:23:20;;;;;;;7.33;6.73;;;7.70;84.10;;;;;;5009392;28;20421;-64
2021/04/15 12:25:54;;;;;;;7.40;6.70;;;7.70;82.80;;;;;;5011986;28;20880;-65
2021/04/15 12:28:42;;;;;;;7.80;7.10;;;7.80;83.90;;;;;;5011648;28;20975;-65
2021/04/15 12:31:39;;;;;;;7.63;7.03;;;7.80;82.40;;;;;;5011910;28;20403;-65
2021/04/15 12:34:42;;;;;;;8.07;7.30;;;7.90;82.40;;;;;;5011980;28;20412;-63
2021/04/15 12:37:25;;;;;;;8.23;7.43;;;7.90;82.30;;;;;;5012140;28;20406;-64
2021/04/15 12:40:03;;;;;;;7.30;6.00;;;7.90;81.90;;;;;;5011321;28;20453;-65
2021/04/15 12:42:36;;;;;;;8.53;7.93;;;8.00;82.50;;;;;;5011744;28;20931;-64
2021/04/15 12:45:09;;;;;;;8.40;7.70;;;8.00;81.70;;;;;;5011768;28;20449;-62
2021/04/15 12:47:40;;;;;;;6.97;6.37;;;8.10;83.30;;;;;;5011791;28;20404;-63
2021/04/15 12:50:08;;;;;;;7.67;7.07;;;8.30;82.00;;;;;;5011418;28;20428;-63
2021/04/15 12:52:34;;;;;;;6.90;6.40;;;8.40;83.60;;;;;;5010254;28;20503;-63
2021/04/15 12:55:01;;;;;;;7.67;7.00;;;8.60;80.50;;;;;;5010995;28;20950;-63
2021/04/15 12:57:30;;;;;;;7.40;6.80;;;8.70;80.10;;;;;;5011556;28;20453;-63
2021/04/15 12:59:57;;;;;;;5.93;5.63;;;8.60;80.30;;;;;;5011239;28;20490;-63
2021/04/15 13:02:26;;;;;;;7.77;7.00;;;8.60;76.60;;;;;;5011521;28;20416;-63
2021/04/15 13:04:58;;;;;;;8.63;7.10;;;8.70;78.40;;;;;;5011712;28;20418;-63
2021/04/15 13:07:24;;;;;;;6.80;6.13;;;8.70;78.50;;;;;;5011619;28;20465;-64
2021/04/15 13:09:52;;;;;;;6.27;5.83;;;8.70;77.70;;;;;;5011180;28;20863;-63
2021/04/15 13:12:21;;;;;;;6.50;6.10;;;8.80;75.40;;;;;;5011511;28;20168;-64
2021/04/15 13:14:51;;;;;;;7.40;6.90;;;9.00;76.90;;;;;;5011688;28;20434;-65
2021/04/15 13:17:36;;;;;;;6.97;6.47;;;10.10;82.40;;;;;;5011431;28;20440;-65
2021/04/15 13:20:13;;;;;;;7.40;6.90;;;11.50;83.70;;;;;;5010828;28;20463;-66
2021/04/15 13:22:42;;;;;;;7.70;7.00;;;12.40;75.30;;;;;;5011201;28;20416;-66
2021/04/15 13:25:14;;;;;;;7.60;7.10;;;13.40;75.30;;;;;;5014080;28;20421;-65
2021/04/15 13:27:45;;;;;;;6.77;6.17;;;13.40;68.60;;;;;;5014980;28;20462;-66
2021/04/15 13:30:34;;;;;;;5.97;5.67;;;12.90;58.90;;;;;;5014433;28;20820;-66
2021/04/15 13:33:09;;;;;;;5.30;4.90;;;12.40;62.60;;;;;;5014969;28;20411;-65
2021/04/15 13:35:37;;;;;;;5.43;5.03;;;12.00;59.20;;;;;;5015015;28;20776;-65
2021/04/15 13:40:59;;;;;;;5.07;4.67;;;11.10;58.80;;;;;;5014418;28;20476;-65
2021/04/15 13:43:46;;;;;;;5.80;5.30;;;10.60;62.30;;;;;;5014597;28;20412;-65
2021/04/15 13:49:08;;;;;;;5.63;5.23;;;10.10;62.10;;;;;;5013999;28;20558;-64
2021/04/15 13:51:57;;;;;;;5.70;5.40;;;9.90;65.50;;;;;;5014498;28;20404;-65